OHFUK KCMA-KSAN
Flight info
| Callsign | OHFUK |
|---|---|
| Flight time | 0h 55m |
| Altitude | 7000 |
| Route | SXC EIREE SHAMU SHAMU1 |
| Aircraft | PC12/L-SDFGRWY/S |
Departure
| Time | 2026-04-21 00:55 |
|---|---|
| Airport | Camarillo International Airport (KCMA) |
Arrival
| Time | 2026-04-21 01:51 |
|---|---|
| Airport | San Diego International Airport (KSAN) |
| Time | Latitude | Longitude | Altitude | Speed | Heading |
|---|---|---|---|---|---|
| 2026-04-21 00:35 | 34.21044 | -119.08947 | 83 ft | 0 kts | 97° |
| 2026-04-21 00:51 | 34.21044 | -119.08937 | 83 ft | 4 kts | 84° |
| 2026-04-21 00:51 | 34.21073 | -119.08922 | 80 ft | 6 kts | 1° |
| 2026-04-21 00:52 | 34.21097 | -119.08873 | 80 ft | 9 kts | 90° |
| 2026-04-21 00:52 | 34.21097 | -119.08789 | 80 ft | 11 kts | 90° |
| 2026-04-21 00:52 | 34.21094 | -119.08692 | 80 ft | 12 kts | 89° |
| 2026-04-21 00:52 | 34.21094 | -119.08598 | 81 ft | 11 kts | 91° |
| 2026-04-21 00:53 | 34.21094 | -119.08506 | 82 ft | 11 kts | 90° |
| 2026-04-21 00:53 | 34.21126 | -119.08462 | 82 ft | 10 kts | 1° |
| 2026-04-21 00:53 | 34.21208 | -119.08462 | 82 ft | 12 kts | 0° |
| 2026-04-21 00:53 | 34.21282 | -119.08462 | 80 ft | 5 kts | 359° |
| 2026-04-21 00:54 | 34.21284 | -119.08462 | 80 ft | 0 kts | 359° |
| 2026-04-21 00:54 | 34.21288 | -119.08462 | 80 ft | 3 kts | 359° |
| 2026-04-21 00:54 | 34.21339 | -119.08462 | 81 ft | 8 kts | 358° |
| 2026-04-21 00:54 | 34.21369 | -119.08548 | 80 ft | 32 kts | 269° |
| 2026-04-21 00:55 | 34.21373 | -119.09048 | 76 ft | 81 kts | 271° |
| 2026-04-21 00:55 | 34.21423 | -119.09785 | 267 ft | 94 kts | 281° |
| 2026-04-21 00:55 | 34.21676 | -119.10559 | 538 ft | 104 kts | 287° |
| 2026-04-21 00:55 | 34.21959 | -119.11386 | 860 ft | 109 kts | 288° |
| 2026-04-21 00:56 | 34.22246 | -119.12256 | 1239 ft | 111 kts | 290° |
| 2026-04-21 00:56 | 34.22509 | -119.13136 | 1655 ft | 113 kts | 287° |
| 2026-04-21 00:56 | 34.22765 | -119.14091 | 1902 ft | 127 kts | 287° |
| 2026-04-21 00:56 | 34.23041 | -119.15180 | 2150 ft | 146 kts | 287° |
| 2026-04-21 00:57 | 34.23364 | -119.16450 | 2408 ft | 169 kts | 287° |
| 2026-04-21 00:57 | 34.23721 | -119.17866 | 2661 ft | 188 kts | 287° |
| 2026-04-21 00:57 | 34.24122 | -119.19437 | 2920 ft | 203 kts | 287° |
| 2026-04-21 00:57 | 34.24551 | -119.21107 | 3165 ft | 211 kts | 284° |
| 2026-04-21 00:58 | 34.24408 | -119.22853 | 3393 ft | 216 kts | 243° |
| 2026-04-21 00:58 | 34.23405 | -119.24192 | 3689 ft | 217 kts | 216° |
| 2026-04-21 00:58 | 34.22005 | -119.24842 | 4019 ft | 218 kts | 188° |
| 2026-04-21 00:58 | 34.20511 | -119.24618 | 4360 ft | 220 kts | 160° |
| 2026-04-21 00:59 | 34.19281 | -119.23539 | 4702 ft | 222 kts | 131° |
| 2026-04-21 00:59 | 34.18520 | -119.21925 | 5059 ft | 221 kts | 118° |
| 2026-04-21 00:59 | 34.17870 | -119.20241 | 5365 ft | 221 kts | 118° |
| 2026-04-21 00:59 | 34.17193 | -119.18573 | 5614 ft | 221 kts | 120° |
| 2026-04-21 01:00 | 34.16495 | -119.16916 | 5842 ft | 221 kts | 120° |
| 2026-04-21 01:00 | 34.15799 | -119.15261 | 6119 ft | 222 kts | 120° |
| 2026-04-21 01:00 | 34.15104 | -119.13597 | 6376 ft | 222 kts | 120° |
| 2026-04-21 01:00 | 34.14407 | -119.11927 | 6606 ft | 222 kts | 120° |
| 2026-04-21 01:01 | 34.13710 | -119.10261 | 6842 ft | 222 kts | 121° |
| 2026-04-21 01:01 | 34.13014 | -119.08596 | 7079 ft | 222 kts | 121° |
| 2026-04-21 01:01 | 34.12316 | -119.06935 | 7319 ft | 221 kts | 122° |
| 2026-04-21 01:01 | 34.11374 | -119.05557 | 7576 ft | 214 kts | 147° |
| 2026-04-21 01:02 | 34.10037 | -119.04834 | 7845 ft | 211 kts | 171° |
| 2026-04-21 01:02 | 34.08584 | -119.04648 | 8104 ft | 211 kts | 177° |
| 2026-04-21 01:02 | 34.07120 | -119.04506 | 8346 ft | 211 kts | 177° |
| 2026-04-21 01:02 | 34.05655 | -119.04356 | 8593 ft | 211 kts | 177° |
| 2026-04-21 01:03 | 34.04191 | -119.04201 | 8844 ft | 211 kts | 177° |
| 2026-04-21 01:03 | 34.02723 | -119.04046 | 9013 ft | 215 kts | 177° |
| 2026-04-21 01:03 | 34.01204 | -119.03889 | 9013 ft | 223 kts | 177° |
| 2026-04-21 01:03 | 33.99639 | -119.03727 | 9011 ft | 228 kts | 177° |
| 2026-04-21 01:04 | 33.98046 | -119.03561 | 9006 ft | 231 kts | 177° |
| 2026-04-21 01:04 | 33.96434 | -119.03392 | 9007 ft | 234 kts | 177° |
| 2026-04-21 01:04 | 33.94819 | -119.03223 | 9005 ft | 233 kts | 177° |
| 2026-04-21 01:04 | 33.93209 | -119.03054 | 9007 ft | 232 kts | 177° |
| 2026-04-21 01:05 | 33.91605 | -119.02886 | 9004 ft | 231 kts | 177° |
| 2026-04-21 01:05 | 33.90003 | -119.02718 | 9001 ft | 231 kts | 177° |
| 2026-04-21 01:05 | 33.88403 | -119.02550 | 9002 ft | 231 kts | 177° |
| 2026-04-21 01:05 | 33.86805 | -119.02383 | 9004 ft | 231 kts | 177° |
| 2026-04-21 01:06 | 33.85206 | -119.02216 | 9001 ft | 231 kts | 177° |
| 2026-04-21 01:06 | 33.83609 | -119.02049 | 9004 ft | 230 kts | 177° |
| 2026-04-21 01:06 | 33.82032 | -119.01884 | 9007 ft | 230 kts | 177° |
| 2026-04-21 01:06 | 33.80436 | -119.01712 | 9002 ft | 229 kts | 175° |
| 2026-04-21 01:07 | 33.78938 | -119.01076 | 8999 ft | 233 kts | 151° |
| 2026-04-21 01:07 | 33.77762 | -118.99721 | 9000 ft | 236 kts | 135° |
| 2026-04-21 01:07 | 33.76719 | -118.98190 | 9001 ft | 237 kts | 133° |
| 2026-04-21 01:07 | 33.75676 | -118.96653 | 9001 ft | 237 kts | 134° |
| 2026-04-21 01:08 | 33.74619 | -118.95129 | 8997 ft | 237 kts | 134° |
| 2026-04-21 01:08 | 33.73558 | -118.93607 | 9003 ft | 237 kts | 134° |
| 2026-04-21 01:08 | 33.72500 | -118.92085 | 9000 ft | 237 kts | 134° |
| 2026-04-21 01:08 | 33.71442 | -118.90560 | 9001 ft | 237 kts | 134° |
| 2026-04-21 01:09 | 33.70385 | -118.89038 | 9005 ft | 237 kts | 134° |
| 2026-04-21 01:09 | 33.69684 | -118.88030 | 9003 ft | 238 kts | 134° |
| 2026-04-21 01:09 | 33.68625 | -118.86507 | 9003 ft | 238 kts | 134° |
| 2026-04-21 01:09 | 33.67566 | -118.84984 | 9002 ft | 237 kts | 134° |
| 2026-04-21 01:10 | 33.66507 | -118.83462 | 9006 ft | 237 kts | 134° |
| 2026-04-21 01:10 | 33.65103 | -118.81445 | 9005 ft | 237 kts | 134° |
| 2026-04-21 01:10 | 33.64044 | -118.79924 | 9002 ft | 238 kts | 134° |
| 2026-04-21 01:10 | 33.63328 | -118.78897 | 9005 ft | 238 kts | 134° |
| 2026-04-21 01:11 | 33.62269 | -118.77377 | 9001 ft | 237 kts | 134° |
| 2026-04-21 01:11 | 33.61209 | -118.75858 | 9005 ft | 237 kts | 134° |
| 2026-04-21 01:11 | 33.60150 | -118.74340 | 9007 ft | 237 kts | 134° |
| 2026-04-21 01:11 | 33.59089 | -118.72819 | 9007 ft | 238 kts | 134° |
| 2026-04-21 01:12 | 33.58043 | -118.71321 | 9009 ft | 237 kts | 134° |
| 2026-04-21 01:12 | 33.56981 | -118.69800 | 9010 ft | 238 kts | 134° |
| 2026-04-21 01:12 | 33.55921 | -118.68283 | 9010 ft | 237 kts | 134° |
| 2026-04-21 01:12 | 33.54859 | -118.66765 | 9010 ft | 237 kts | 134° |
| 2026-04-21 01:13 | 33.53798 | -118.65247 | 9012 ft | 237 kts | 134° |
| 2026-04-21 01:13 | 33.52738 | -118.63732 | 9011 ft | 237 kts | 134° |
| 2026-04-21 01:13 | 33.51675 | -118.62214 | 9014 ft | 237 kts | 134° |
| 2026-04-21 01:13 | 33.50611 | -118.60694 | 9015 ft | 238 kts | 134° |
| 2026-04-21 01:14 | 33.49548 | -118.59177 | 9016 ft | 238 kts | 134° |
| 2026-04-21 01:14 | 33.48487 | -118.57663 | 9019 ft | 237 kts | 134° |
| 2026-04-21 01:14 | 33.47425 | -118.56148 | 9020 ft | 237 kts | 134° |
| 2026-04-21 01:14 | 33.46364 | -118.54634 | 9021 ft | 238 kts | 134° |
| 2026-04-21 01:15 | 33.45297 | -118.53115 | 9019 ft | 239 kts | 134° |
| 2026-04-21 01:15 | 33.44243 | -118.51614 | 9020 ft | 239 kts | 134° |
| 2026-04-21 01:15 | 33.43174 | -118.50091 | 9017 ft | 239 kts | 134° |
| 2026-04-21 01:15 | 33.42100 | -118.48563 | 9022 ft | 240 kts | 134° |
| 2026-04-21 01:16 | 33.41024 | -118.47033 | 9018 ft | 240 kts | 134° |
| 2026-04-21 01:16 | 33.39948 | -118.45502 | 9015 ft | 240 kts | 134° |
| 2026-04-21 01:16 | 33.38875 | -118.43976 | 9019 ft | 240 kts | 134° |
| 2026-04-21 01:16 | 33.37835 | -118.42424 | 9015 ft | 240 kts | 127° |
| 2026-04-21 01:17 | 33.37275 | -118.40531 | 9018 ft | 245 kts | 105° |
| 2026-04-21 01:17 | 33.37013 | -118.38510 | 9024 ft | 246 kts | 102° |
| 2026-04-21 01:17 | 33.36770 | -118.36479 | 9018 ft | 247 kts | 103° |
| 2026-04-21 01:17 | 33.36508 | -118.34445 | 9021 ft | 247 kts | 103° |
| 2026-04-21 01:18 | 33.36237 | -118.32412 | 9020 ft | 247 kts | 103° |
| 2026-04-21 01:18 | 33.35970 | -118.30381 | 9018 ft | 247 kts | 103° |
| 2026-04-21 01:18 | 33.35706 | -118.28354 | 9017 ft | 246 kts | 103° |
| 2026-04-21 01:18 | 33.35441 | -118.26332 | 9017 ft | 246 kts | 103° |
| 2026-04-21 01:19 | 33.35176 | -118.24311 | 9016 ft | 246 kts | 103° |
| 2026-04-21 01:19 | 33.34914 | -118.22317 | 9014 ft | 246 kts | 103° |
| 2026-04-21 01:19 | 33.34648 | -118.20297 | 9014 ft | 246 kts | 103° |
| 2026-04-21 01:19 | 33.34382 | -118.18279 | 9013 ft | 246 kts | 103° |
| 2026-04-21 01:20 | 33.34116 | -118.16262 | 9010 ft | 246 kts | 103° |
| 2026-04-21 01:20 | 33.33849 | -118.14245 | 9009 ft | 245 kts | 103° |
| 2026-04-21 01:20 | 33.33583 | -118.12231 | 9010 ft | 245 kts | 103° |
| 2026-04-21 01:20 | 33.33316 | -118.10217 | 9006 ft | 245 kts | 103° |
| 2026-04-21 01:21 | 33.33049 | -118.08204 | 9007 ft | 245 kts | 103° |
| 2026-04-21 01:21 | 33.32781 | -118.06188 | 9010 ft | 245 kts | 103° |
| 2026-04-21 01:21 | 33.32517 | -118.04201 | 9005 ft | 245 kts | 103° |
| 2026-04-21 01:21 | 33.32245 | -118.02164 | 9006 ft | 245 kts | 103° |
| 2026-04-21 01:22 | 33.31980 | -118.00176 | 9000 ft | 245 kts | 103° |
| 2026-04-21 01:22 | 33.31711 | -117.98161 | 9003 ft | 245 kts | 103° |
| 2026-04-21 01:22 | 33.31442 | -117.96148 | 8998 ft | 245 kts | 103° |
| 2026-04-21 01:22 | 33.31173 | -117.94134 | 8998 ft | 245 kts | 103° |
| 2026-04-21 01:23 | 33.30903 | -117.92122 | 8998 ft | 245 kts | 103° |
| 2026-04-21 01:23 | 33.30633 | -117.90112 | 8993 ft | 245 kts | 103° |
| 2026-04-21 01:23 | 33.30363 | -117.88099 | 8998 ft | 245 kts | 103° |
| 2026-04-21 01:23 | 33.30092 | -117.86084 | 8999 ft | 245 kts | 103° |
| 2026-04-21 01:24 | 33.29821 | -117.84074 | 8995 ft | 245 kts | 103° |
| 2026-04-21 01:24 | 33.29550 | -117.82061 | 8996 ft | 245 kts | 103° |
| 2026-04-21 01:24 | 33.29278 | -117.80051 | 8999 ft | 245 kts | 103° |
| 2026-04-21 01:24 | 33.29006 | -117.78039 | 8987 ft | 245 kts | 103° |
| 2026-04-21 01:25 | 33.28718 | -117.76063 | 8989 ft | 243 kts | 107° |
| 2026-04-21 01:25 | 33.27979 | -117.74289 | 8993 ft | 238 kts | 132° |
| 2026-04-21 01:25 | 33.26795 | -117.72933 | 8988 ft | 235 kts | 142° |
| 2026-04-21 01:25 | 33.25552 | -117.71655 | 8986 ft | 236 kts | 142° |
| 2026-04-21 01:26 | 33.24310 | -117.70370 | 8982 ft | 237 kts | 142° |
| 2026-04-21 01:26 | 33.23071 | -117.69074 | 8982 ft | 237 kts | 142° |
| 2026-04-21 01:26 | 33.21828 | -117.67773 | 8977 ft | 237 kts | 142° |
| 2026-04-21 01:26 | 33.20584 | -117.66476 | 8980 ft | 238 kts | 142° |
| 2026-04-21 01:27 | 33.19341 | -117.65180 | 8976 ft | 238 kts | 142° |
| 2026-04-21 01:27 | 33.18095 | -117.63881 | 8973 ft | 237 kts | 142° |
| 2026-04-21 01:27 | 33.16850 | -117.62584 | 8973 ft | 238 kts | 142° |
| 2026-04-21 01:27 | 33.15605 | -117.61287 | 8971 ft | 238 kts | 142° |
| 2026-04-21 01:28 | 33.14361 | -117.59991 | 8968 ft | 238 kts | 142° |
| 2026-04-21 01:28 | 33.13114 | -117.58693 | 8972 ft | 238 kts | 142° |
| 2026-04-21 01:28 | 33.11867 | -117.57395 | 8968 ft | 238 kts | 142° |
| 2026-04-21 01:28 | 33.10618 | -117.56097 | 8968 ft | 238 kts | 142° |
| 2026-04-21 01:29 | 33.09370 | -117.54799 | 8970 ft | 238 kts | 142° |
| 2026-04-21 01:29 | 33.08120 | -117.53501 | 8969 ft | 238 kts | 142° |
| 2026-04-21 01:29 | 33.06873 | -117.52205 | 8953 ft | 239 kts | 142° |
| 2026-04-21 01:29 | 33.05623 | -117.50910 | 8720 ft | 242 kts | 142° |
| 2026-04-21 01:30 | 33.04355 | -117.49595 | 8467 ft | 241 kts | 142° |
| 2026-04-21 01:30 | 33.03100 | -117.48291 | 8216 ft | 238 kts | 141° |
| 2026-04-21 01:30 | 33.01854 | -117.46999 | 7967 ft | 237 kts | 141° |
| 2026-04-21 01:30 | 33.00616 | -117.45715 | 7724 ft | 236 kts | 141° |
| 2026-04-21 01:31 | 32.99381 | -117.44435 | 7478 ft | 235 kts | 141° |
| 2026-04-21 01:31 | 32.98154 | -117.43164 | 7239 ft | 234 kts | 141° |
| 2026-04-21 01:31 | 32.96926 | -117.41892 | 7001 ft | 233 kts | 142° |
| 2026-04-21 01:31 | 32.95701 | -117.40624 | 6757 ft | 233 kts | 142° |
| 2026-04-21 01:32 | 32.94477 | -117.39358 | 6523 ft | 233 kts | 141° |
| 2026-04-21 01:32 | 32.93253 | -117.38092 | 6279 ft | 233 kts | 142° |
| 2026-04-21 01:32 | 32.92049 | -117.36845 | 6021 ft | 226 kts | 141° |
| 2026-04-21 01:32 | 32.90881 | -117.35634 | 5989 ft | 220 kts | 142° |
| 2026-04-21 01:33 | 32.89741 | -117.34454 | 5987 ft | 216 kts | 141° |
| 2026-04-21 01:33 | 32.88626 | -117.33302 | 5985 ft | 214 kts | 142° |
| 2026-04-21 01:33 | 32.87505 | -117.32144 | 5984 ft | 213 kts | 142° |
| 2026-04-21 01:33 | 32.86389 | -117.30992 | 5979 ft | 212 kts | 142° |
| 2026-04-21 01:34 | 32.85277 | -117.29844 | 5983 ft | 212 kts | 142° |
| 2026-04-21 01:34 | 32.84167 | -117.28699 | 5979 ft | 208 kts | 142° |
| 2026-04-21 01:34 | 32.83111 | -117.27607 | 5974 ft | 195 kts | 142° |
| 2026-04-21 01:34 | 32.82118 | -117.26580 | 5976 ft | 185 kts | 143° |
| 2026-04-21 01:35 | 32.81166 | -117.25597 | 5996 ft | 178 kts | 142° |
| 2026-04-21 01:35 | 32.80359 | -117.24536 | 5987 ft | 173 kts | 117° |
| 2026-04-21 01:35 | 32.80105 | -117.23174 | 5990 ft | 166 kts | 102° |
| 2026-04-21 01:35 | 32.79956 | -117.21845 | 5974 ft | 159 kts | 101° |
| 2026-04-21 01:36 | 32.79819 | -117.20563 | 5981 ft | 164 kts | 101° |
| 2026-04-21 01:36 | 32.79665 | -117.19161 | 5987 ft | 176 kts | 101° |
| 2026-04-21 01:36 | 32.79498 | -117.17687 | 5992 ft | 184 kts | 102° |
| 2026-04-21 01:36 | 32.79324 | -117.16158 | 5991 ft | 188 kts | 101° |
| 2026-04-21 01:37 | 32.79146 | -117.14628 | 5992 ft | 185 kts | 102° |
| 2026-04-21 01:37 | 32.78971 | -117.13122 | 5988 ft | 183 kts | 102° |
| 2026-04-21 01:37 | 32.78799 | -117.11635 | 5986 ft | 181 kts | 102° |
| 2026-04-21 01:37 | 32.78632 | -117.10164 | 5984 ft | 179 kts | 101° |
| 2026-04-21 01:38 | 32.78469 | -117.08713 | 5982 ft | 176 kts | 101° |
| 2026-04-21 01:38 | 32.78309 | -117.07276 | 5984 ft | 175 kts | 101° |
| 2026-04-21 01:38 | 32.78151 | -117.05848 | 5980 ft | 174 kts | 101° |
| 2026-04-21 01:38 | 32.77994 | -117.04426 | 5974 ft | 173 kts | 101° |
| 2026-04-21 01:39 | 32.77835 | -117.03012 | 5969 ft | 172 kts | 101° |
| 2026-04-21 01:39 | 32.77678 | -117.01606 | 5969 ft | 171 kts | 102° |
| 2026-04-21 01:39 | 32.77516 | -117.00176 | 5739 ft | 178 kts | 101° |
| 2026-04-21 01:39 | 32.77348 | -116.98734 | 5440 ft | 174 kts | 101° |
| 2026-04-21 01:40 | 32.77182 | -116.97321 | 5137 ft | 172 kts | 102° |
| 2026-04-21 01:40 | 32.77019 | -116.95923 | 4849 ft | 169 kts | 101° |
| 2026-04-21 01:40 | 32.76849 | -116.94549 | 4563 ft | 167 kts | 102° |
| 2026-04-21 01:40 | 32.76666 | -116.93219 | 4310 ft | 163 kts | 105° |
| 2026-04-21 01:41 | 32.76028 | -116.92198 | 4087 ft | 156 kts | 156° |
| 2026-04-21 01:41 | 32.74988 | -116.92177 | 3873 ft | 152 kts | 199° |
| 2026-04-21 01:41 | 32.73984 | -116.92589 | 3783 ft | 150 kts | 201° |
| 2026-04-21 01:41 | 32.73026 | -116.92994 | 3776 ft | 143 kts | 201° |
| 2026-04-21 01:42 | 32.72097 | -116.93385 | 3771 ft | 140 kts | 201° |
| 2026-04-21 01:42 | 32.71180 | -116.93771 | 3774 ft | 142 kts | 201° |
| 2026-04-21 01:42 | 32.70243 | -116.94164 | 3788 ft | 140 kts | 201° |
| 2026-04-21 01:42 | 32.69307 | -116.94554 | 3792 ft | 145 kts | 201° |
| 2026-04-21 01:43 | 32.68345 | -116.94957 | 3790 ft | 148 kts | 201° |
| 2026-04-21 01:43 | 32.67370 | -116.95367 | 3789 ft | 149 kts | 201° |
| 2026-04-21 01:43 | 32.66397 | -116.95774 | 3788 ft | 148 kts | 201° |
| 2026-04-21 01:43 | 32.65422 | -116.96181 | 3787 ft | 149 kts | 201° |
| 2026-04-21 01:44 | 32.64447 | -116.96585 | 3793 ft | 149 kts | 201° |
| 2026-04-21 01:44 | 32.63472 | -116.96990 | 3783 ft | 146 kts | 201° |
| 2026-04-21 01:44 | 32.62529 | -116.97378 | 3782 ft | 140 kts | 201° |
| 2026-04-21 01:44 | 32.61626 | -116.97756 | 3777 ft | 134 kts | 204° |
| 2026-04-21 01:45 | 32.61100 | -116.98576 | 3785 ft | 130 kts | 265° |
| 2026-04-21 01:45 | 32.61512 | -116.99487 | 3800 ft | 138 kts | 328° |
| 2026-04-21 01:45 | 32.62431 | -116.99895 | 3791 ft | 145 kts | 341° |
| 2026-04-21 01:45 | 32.63406 | -117.00271 | 3790 ft | 150 kts | 341° |
| 2026-04-21 01:46 | 32.64408 | -117.00659 | 3789 ft | 153 kts | 341° |
| 2026-04-21 01:46 | 32.65428 | -117.01058 | 3791 ft | 155 kts | 341° |
| 2026-04-21 01:46 | 32.66461 | -117.01464 | 3788 ft | 157 kts | 341° |
| 2026-04-21 01:46 | 32.67490 | -117.01870 | 3801 ft | 159 kts | 341° |
| 2026-04-21 01:47 | 32.68542 | -117.02283 | 3787 ft | 160 kts | 341° |
| 2026-04-21 01:47 | 32.69573 | -117.02763 | 3746 ft | 161 kts | 327° |
| 2026-04-21 01:47 | 32.70225 | -117.03766 | 3694 ft | 149 kts | 290° |
| 2026-04-21 01:47 | 32.70515 | -117.04908 | 3517 ft | 140 kts | 285° |
| 2026-04-21 01:48 | 32.70722 | -117.06055 | 3231 ft | 147 kts | 279° |
| 2026-04-21 01:48 | 32.70882 | -117.07277 | 2868 ft | 148 kts | 279° |
| 2026-04-21 01:48 | 32.71011 | -117.08467 | 2550 ft | 144 kts | 279° |
| 2026-04-21 01:48 | 32.71191 | -117.09627 | 2191 ft | 141 kts | 282° |
| 2026-04-21 01:49 | 32.71404 | -117.10741 | 1772 ft | 137 kts | 283° |
| 2026-04-21 01:49 | 32.71634 | -117.11781 | 1448 ft | 127 kts | 286° |
| 2026-04-21 01:49 | 32.71864 | -117.12725 | 1209 ft | 114 kts | 285° |
| 2026-04-21 01:49 | 32.72078 | -117.13637 | 982 ft | 115 kts | 285° |
| 2026-04-21 01:50 | 32.72297 | -117.14542 | 809 ft | 113 kts | 285° |
| 2026-04-21 01:50 | 32.72508 | -117.15438 | 652 ft | 112 kts | 286° |
| 2026-04-21 01:50 | 32.72721 | -117.16321 | 424 ft | 110 kts | 287° |
| 2026-04-21 01:50 | 32.72930 | -117.17197 | 222 ft | 109 kts | 287° |
| 2026-04-21 01:51 | 32.73137 | -117.18061 | 44 ft | 107 kts | 287° |
| 2026-04-21 01:51 | 32.73313 | -117.18786 | 16 ft | 69 kts | 287° |
| 2026-04-21 01:51 | 32.73382 | -117.19060 | 17 ft | 25 kts | 301° |
| 2026-04-21 01:51 | 32.73483 | -117.19054 | 15 ft | 2 kts | 63° |
| 2026-04-21 01:53 | 32.73485 | -117.19024 | 15 ft | 8 kts | 106° |
| 2026-04-21 01:53 | 32.73463 | -117.18934 | 15 ft | 13 kts | 106° |
| 2026-04-21 01:53 | 32.73435 | -117.18818 | 15 ft | 16 kts | 106° |
| 2026-04-21 01:53 | 32.73404 | -117.18689 | 15 ft | 14 kts | 107° |
| 2026-04-21 01:54 | 32.73376 | -117.18577 | 17 ft | 14 kts | 105° |
| 2026-04-21 01:54 | 32.73348 | -117.18459 | 19 ft | 16 kts | 106° |
| 2026-04-21 01:54 | 32.73315 | -117.18322 | 17 ft | 19 kts | 106° |
| 2026-04-21 01:54 | 32.73278 | -117.18168 | 17 ft | 20 kts | 105° |
| 2026-04-21 01:55 | 32.73252 | -117.18063 | 16 ft | 13 kts | 105° |
| 2026-04-21 01:55 | 32.73268 | -117.17978 | 17 ft | 12 kts | 22° |
| 2026-04-21 01:55 | 32.73343 | -117.17952 | 18 ft | 10 kts | 14° |
| 2026-04-21 01:55 | 32.73383 | -117.17885 | 16 ft | 9 kts | 107° |
| 2026-04-21 01:56 | 32.73366 | -117.17859 | 17 ft | 0 kts | 140° |